sensor_id;sensor_type;location;lat;lon;timestamp;P1;durP1;ratioP1;P2;durP2;ratioP2
21107;SDS011;10712;52.944;9.098;2023-06-24T00:02:13;6.85;;;6.25;;
21107;SDS011;10712;52.944;9.098;2023-06-24T00:04:39;7.22;;;6.53;;
21107;SDS011;10712;52.944;9.098;2023-06-24T00:07:05;8.18;;;7.25;;
21107;SDS011;10712;52.944;9.098;2023-06-24T00:09:31;7.18;;;6.47;;
21107;SDS011;10712;52.944;9.098;2023-06-24T00:11:57;7.85;;;7.13;;
21107;SDS011;10712;52.944;9.098;2023-06-24T00:14:24;7.97;;;7.28;;
21107;SDS011;10712;52.944;9.098;2023-06-24T00:16:52;8.77;;;6.43;;
21107;SDS011;10712;52.944;9.098;2023-06-24T00:19:19;9.27;;;7.22;;
21107;SDS011;10712;52.944;9.098;2023-06-24T00:21:48;7.80;;;7.00;;
21107;SDS011;10712;52.944;9.098;2023-06-24T00:24:18;8.05;;;6.55;;
21107;SDS011;10712;52.944;9.098;2023-06-24T00:26:54;10.27;;;7.97;;
21107;SDS011;10712;52.944;9.098;2023-06-24T00:29:22;10.40;;;8.00;;
21107;SDS011;10712;52.944;9.098;2023-06-24T00:31:47;8.52;;;7.72;;
21107;SDS011;10712;52.944;9.098;2023-06-24T00:34:13;9.68;;;7.53;;
21107;SDS011;10712;52.944;9.098;2023-06-24T00:36:39;7.95;;;7.25;;
21107;SDS011;10712;52.944;9.098;2023-06-24T00:39:05;8.98;;;7.68;;
21107;SDS011;10712;52.944;9.098;2023-06-24T00:41:32;7.50;;;6.80;;
21107;SDS011;10712;52.944;9.098;2023-06-24T00:43:59;9.18;;;6.28;;
21107;SDS011;10712;52.944;9.098;2023-06-24T00:46:27;6.45;;;5.95;;
21107;SDS011;10712;52.944;9.098;2023-06-24T00:48:56;7.60;;;6.18;;
21107;SDS011;10712;52.944;9.098;2023-06-24T00:51:25;7.28;;;6.57;;
21107;SDS011;10712;52.944;9.098;2023-06-24T00:53:56;6.75;;;6.13;;
21107;SDS011;10712;52.944;9.098;2023-06-24T00:56:35;10.52;;;6.97;;
21107;SDS011;10712;52.944;9.098;2023-06-24T00:59:03;7.70;;;7.00;;
21107;SDS011;10712;52.944;9.098;2023-06-24T01:01:35;7.00;;;6.40;;
21107;SDS011;10712;52.944;9.098;2023-06-24T01:04:02;7.15;;;6.53;;
21107;SDS011;10712;52.944;9.098;2023-06-24T01:06:29;7.30;;;6.70;;
21107;SDS011;10712;52.944;9.098;2023-06-24T01:08:56;7.15;;;6.10;;
21107;SDS011;10712;52.944;9.098;2023-06-24T01:11:25;9.32;;;6.85;;
21107;SDS011;10712;52.944;9.098;2023-06-24T01:13:52;8.10;;;7.38;;
21107;SDS011;10712;52.944;9.098;2023-06-24T01:22:08;7.95;;;7.25;;
21107;SDS011;10712;52.944;9.098;2023-06-24T01:25:17;8.57;;;7.22;;
21107;SDS011;10712;52.944;9.098;2023-06-24T01:28:23;8.40;;;7.55;;
21107;SDS011;10712;52.944;9.098;2023-06-24T01:31:43;8.15;;;7.40;;
21107;SDS011;10712;52.944;9.098;2023-06-24T01:37:19;7.88;;;7.07;;
21107;SDS011;10712;52.944;9.098;2023-06-24T01:40:01;7.90;;;7.15;;
21107;SDS011;10712;52.944;9.098;2023-06-24T01:42:45;6.68;;;6.05;;
21107;SDS011;10712;52.944;9.098;2023-06-24T01:45:15;7.07;;;6.38;;
21107;SDS011;10712;52.944;9.098;2023-06-24T01:47:49;8.23;;;7.38;;
21107;SDS011;10712;52.944;9.098;2023-06-24T01:50:34;7.05;;;6.45;;
21107;SDS011;10712;52.944;9.098;2023-06-24T01:53:04;7.88;;;6.43;;
21107;SDS011;10712;52.944;9.098;2023-06-24T01:55:33;8.15;;;6.47;;
21107;SDS011;10712;52.944;9.098;2023-06-24T01:58:02;8.70;;;6.50;;
21107;SDS011;10712;52.944;9.098;2023-06-24T02:00:33;7.60;;;6.90;;
21107;SDS011;10712;52.944;9.098;2023-06-24T02:03:01;7.30;;;6.55;;
21107;SDS011;10712;52.944;9.098;2023-06-24T02:05:30;7.00;;;6.25;;
21107;SDS011;10712;52.944;9.098;2023-06-24T02:07:58;11.25;;;8.00;;
21107;SDS011;10712;52.944;9.098;2023-06-24T02:10:26;8.13;;;7.32;;
21107;SDS011;10712;52.944;9.098;2023-06-24T02:12:54;8.48;;;7.60;;
21107;SDS011;10712;52.944;9.098;2023-06-24T02:15:21;8.88;;;7.03;;
21107;SDS011;10712;52.944;9.098;2023-06-24T02:17:49;9.27;;;8.38;;
21107;SDS011;10712;52.944;9.098;2023-06-24T02:20:17;9.30;;;8.38;;
21107;SDS011;10712;52.944;9.098;2023-06-24T02:22:44;6.47;;;5.97;;
21107;SDS011;10712;52.944;9.098;2023-06-24T02:25:11;8.48;;;7.68;;
21107;SDS011;10712;52.944;9.098;2023-06-24T02:27:38;7.10;;;6.40;;
21107;SDS011;10712;52.944;9.098;2023-06-24T02:30:05;8.38;;;6.75;;
21107;SDS011;10712;52.944;9.098;2023-06-24T02:32:34;6.65;;;6.03;;
21107;SDS011;10712;52.944;9.098;2023-06-24T02:35:03;7.70;;;6.90;;
21107;SDS011;10712;52.944;9.098;2023-06-24T02:37:30;8.20;;;7.13;;
21107;SDS011;10712;52.944;9.098;2023-06-24T02:39:56;8.40;;;7.53;;
21107;SDS011;10712;52.944;9.098;2023-06-24T02:42:23;9.25;;;7.43;;
21107;SDS011;10712;52.944;9.098;2023-06-24T02:44:49;8.82;;;7.88;;
21107;SDS011;10712;52.944;9.098;2023-06-24T02:47:15;7.80;;;7.10;;
21107;SDS011;10712;52.944;9.098;2023-06-24T02:49:44;7.70;;;7.00;;
21107;SDS011;10712;52.944;9.098;2023-06-24T02:52:12;7.70;;;7.00;;
21107;SDS011;10712;52.944;9.098;2023-06-24T02:54:39;7.63;;;6.93;;
21107;SDS011;10712;52.944;9.098;2023-06-24T02:57:23;8.32;;;7.57;;
21107;SDS011;10712;52.944;9.098;2023-06-24T03:00:29;7.93;;;7.18;;
21107;SDS011;10712;52.944;9.098;2023-06-24T03:03:07;9.32;;;8.20;;
21107;SDS011;10712;52.944;9.098;2023-06-24T03:05:37;8.75;;;7.85;;
21107;SDS011;10712;52.944;9.098;2023-06-24T03:08:04;8.48;;;7.68;;
21107;SDS011;10712;52.944;9.098;2023-06-24T03:10:32;8.13;;;7.38;;
21107;SDS011;10712;52.944;9.098;2023-06-24T03:12:58;8.55;;;7.07;;
21107;SDS011;10712;52.944;9.098;2023-06-24T03:15:32;10.02;;;6.00;;
21107;SDS011;10712;52.944;9.098;2023-06-24T03:17:59;7.28;;;6.50;;
21107;SDS011;10712;52.944;9.098;2023-06-24T03:20:24;6.63;;;5.95;;
21107;SDS011;10712;52.944;9.098;2023-06-24T03:22:53;5.40;;;4.90;;
21107;SDS011;10712;52.944;9.098;2023-06-24T03:25:21;5.88;;;5.32;;
21107;SDS011;10712;52.944;9.098;2023-06-24T03:27:48;6.28;;;5.68;;
21107;SDS011;10712;52.944;9.098;2023-06-24T03:30:14;8.93;;;7.88;;
21107;SDS011;10712;52.944;9.098;2023-06-24T03:32:42;6.50;;;5.90;;
21107;SDS011;10712;52.944;9.098;2023-06-24T03:35:12;7.75;;;6.93;;
21107;SDS011;10712;52.944;9.098;2023-06-24T03:37:39;7.78;;;6.63;;
21107;SDS011;10712;52.944;9.098;2023-06-24T03:40:05;7.50;;;6.78;;
21107;SDS011;10712;52.944;9.098;2023-06-24T03:42:34;7.50;;;6.78;;
21107;SDS011;10712;52.944;9.098;2023-06-24T03:45:00;6.78;;;6.05;;
21107;SDS011;10712;52.944;9.098;2023-06-24T03:47:28;6.95;;;6.25;;
21107;SDS011;10712;52.944;9.098;2023-06-24T03:49:54;6.80;;;6.13;;
21107;SDS011;10712;52.944;9.098;2023-06-24T03:52:20;7.20;;;6.50;;
21107;SDS011;10712;52.944;9.098;2023-06-24T03:54:45;7.05;;;6.35;;
21107;SDS011;10712;52.944;9.098;2023-06-24T03:57:12;6.80;;;6.20;;
21107;SDS011;10712;52.944;9.098;2023-06-24T03:59:38;5.53;;;5.03;;
21107;SDS011;10712;52.944;9.098;2023-06-24T04:02:07;6.45;;;5.85;;
21107;SDS011;10712;52.944;9.098;2023-06-24T04:04:35;6.88;;;6.18;;
21107;SDS011;10712;52.944;9.098;2023-06-24T04:07:03;7.82;;;7.05;;
21107;SDS011;10712;52.944;9.098;2023-06-24T04:09:32;7.55;;;6.82;;
21107;SDS011;10712;52.944;9.098;2023-06-24T04:11:59;8.05;;;7.25;;
21107;SDS011;10712;52.944;9.098;2023-06-24T04:14:32;8.30;;;7.55;;
21107;SDS011;10712;52.944;9.098;2023-06-24T04:16:57;11.07;;;9.48;;
21107;SDS011;10712;52.944;9.098;2023-06-24T04:19:23;9.85;;;8.85;;
21107;SDS011;10712;52.944;9.098;2023-06-24T04:21:49;12.82;;;11.48;;
21107;SDS011;10712;52.944;9.098;2023-06-24T04:24:15;10.23;;;9.23;;
21107;SDS011;10712;52.944;9.098;2023-06-24T04:26:41;12.73;;;9.52;;
21107;SDS011;10712;52.944;9.098;2023-06-24T04:29:06;10.25;;;9.15;;
21107;SDS011;10712;52.944;9.098;2023-06-24T04:31:32;12.98;;;10.15;;
21107;SDS011;10712;52.944;9.098;2023-06-24T04:33:58;9.52;;;8.55;;
21107;SDS011;10712;52.944;9.098;2023-06-24T04:36:24;8.52;;;7.65;;
21107;SDS011;10712;52.944;9.098;2023-06-24T04:38:50;9.13;;;8.23;;
21107;SDS011;10712;52.944;9.098;2023-06-24T04:41:15;9.68;;;8.73;;
21107;SDS011;10712;52.944;9.098;2023-06-24T04:43:43;13.02;;;10.98;;
21107;SDS011;10712;52.944;9.098;2023-06-24T04:46:09;17.15;;;10.40;;
21107;SDS011;10712;52.944;9.098;2023-06-24T04:48:35;11.52;;;10.30;;
21107;SDS011;10712;52.944;9.098;2023-06-24T04:51:01;15.35;;;12.02;;
21107;SDS011;10712;52.944;9.098;2023-06-24T04:53:26;11.63;;;10.48;;
21107;SDS011;10712;52.944;9.098;2023-06-24T04:55:52;11.23;;;10.05;;
21107;SDS011;10712;52.944;9.098;2023-06-24T04:58:18;12.93;;;11.00;;
21107;SDS011;10712;52.944;9.098;2023-06-24T05:00:44;13.65;;;10.20;;
21107;SDS011;10712;52.944;9.098;2023-06-24T05:03:09;11.20;;;10.10;;
21107;SDS011;10712;52.944;9.098;2023-06-24T05:05:35;11.95;;;9.85;;
21107;SDS011;10712;52.944;9.098;2023-06-24T05:08:01;11.27;;;9.18;;
21107;SDS011;10712;52.944;9.098;2023-06-24T05:10:27;13.38;;;11.25;;
21107;SDS011;10712;52.944;9.098;2023-06-24T05:12:52;10.40;;;9.32;;
21107;SDS011;10712;52.944;9.098;2023-06-24T05:15:18;9.82;;;8.88;;
21107;SDS011;10712;52.944;9.098;2023-06-24T05:17:44;10.93;;;9.82;;
21107;SDS011;10712;52.944;9.098;2023-06-24T05:20:10;13.18;;;10.13;;
21107;SDS011;10712;52.944;9.098;2023-06-24T05:22:36;24.13;;;13.95;;
21107;SDS011;10712;52.944;9.098;2023-06-24T05:25:02;15.57;;;12.70;;
21107;SDS011;10712;52.944;9.098;2023-06-24T05:27:28;12.03;;;10.27;;
21107;SDS011;10712;52.944;9.098;2023-06-24T05:29:53;12.90;;;10.15;;
21107;SDS011;10712;52.944;9.098;2023-06-24T05:32:19;9.68;;;8.68;;
21107;SDS011;10712;52.944;9.098;2023-06-24T05:34:45;18.73;;;12.77;;
21107;SDS011;10712;52.944;9.098;2023-06-24T05:37:11;17.08;;;14.05;;
21107;SDS011;10712;52.944;9.098;2023-06-24T05:39:37;16.55;;;13.38;;
21107;SDS011;10712;52.944;9.098;2023-06-24T05:42:03;17.73;;;12.77;;
21107;SDS011;10712;52.944;9.098;2023-06-24T05:44:29;21.13;;;15.32;;
21107;SDS011;10712;52.944;9.098;2023-06-24T05:46:55;14.25;;;12.63;;
21107;SDS011;10712;52.944;9.098;2023-06-24T05:49:21;14.32;;;10.98;;
21107;SDS011;10712;52.944;9.098;2023-06-24T05:51:46;22.95;;;14.40;;
21107;SDS011;10712;52.944;9.098;2023-06-24T05:54:12;11.85;;;10.75;;
21107;SDS011;10712;52.944;9.098;2023-06-24T05:56:38;10.43;;;9.30;;
21107;SDS011;10712;52.944;9.098;2023-06-24T05:59:04;19.67;;;13.68;;
21107;SDS011;10712;52.944;9.098;2023-06-24T06:01:29;14.20;;;12.02;;
21107;SDS011;10712;52.944;9.098;2023-06-24T06:03:55;15.40;;;12.65;;
21107;SDS011;10712;52.944;9.098;2023-06-24T06:06:21;20.58;;;14.23;;
21107;SDS011;10712;52.944;9.098;2023-06-24T06:08:47;14.25;;;12.65;;
21107;SDS011;10712;52.944;9.098;2023-06-24T06:11:13;15.68;;;12.55;;
21107;SDS011;10712;52.944;9.098;2023-06-24T06:13:38;14.45;;;12.27;;
21107;SDS011;10712;52.944;9.098;2023-06-24T06:16:04;17.13;;;11.43;;
21107;SDS011;10712;52.944;9.098;2023-06-24T06:18:30;14.70;;;13.13;;
21107;SDS011;10712;52.944;9.098;2023-06-24T06:20:56;14.30;;;11.32;;
21107;SDS011;10712;52.944;9.098;2023-06-24T06:23:22;14.38;;;12.88;;
21107;SDS011;10712;52.944;9.098;2023-06-24T06:25:47;15.90;;;12.15;;
21107;SDS011;10712;52.944;9.098;2023-06-24T06:28:13;16.50;;;13.90;;
21107;SDS011;10712;52.944;9.098;2023-06-24T06:30:39;14.43;;;11.52;;
21107;SDS011;10712;52.944;9.098;2023-06-24T06:33:05;13.85;;;11.93;;
21107;SDS011;10712;52.944;9.098;2023-06-24T06:35:30;18.20;;;14.32;;
21107;SDS011;10712;52.944;9.098;2023-06-24T06:37:57;15.38;;;12.65;;
21107;SDS011;10712;52.944;9.098;2023-06-24T06:40:23;16.02;;;12.40;;
21107;SDS011;10712;52.944;9.098;2023-06-24T06:42:49;12.13;;;10.80;;
21107;SDS011;10712;52.944;9.098;2023-06-24T06:45:15;14.52;;;12.05;;
21107;SDS011;10712;52.944;9.098;2023-06-24T06:47:41;12.05;;;10.85;;
21107;SDS011;10712;52.944;9.098;2023-06-24T06:50:07;12.02;;;10.73;;
21107;SDS011;10712;52.944;9.098;2023-06-24T06:52:33;15.50;;;9.77;;
21107;SDS011;10712;52.944;9.098;2023-06-24T06:54:59;14.75;;;9.73;;
21107;SDS011;10712;52.944;9.098;2023-06-24T06:57:25;10.05;;;9.00;;
21107;SDS011;10712;52.944;9.098;2023-06-24T06:59:51;10.13;;;9.00;;
21107;SDS011;10712;52.944;9.098;2023-06-24T07:02:17;10.18;;;8.50;;
21107;SDS011;10712;52.944;9.098;2023-06-24T07:04:43;7.43;;;6.72;;
21107;SDS011;10712;52.944;9.098;2023-06-24T07:07:10;7.80;;;7.00;;
21107;SDS011;10712;52.944;9.098;2023-06-24T07:09:37;8.77;;;7.88;;
21107;SDS011;10712;52.944;9.098;2023-06-24T07:12:02;8.23;;;7.43;;
21107;SDS011;10712;52.944;9.098;2023-06-24T07:14:29;9.00;;;8.10;;
21107;SDS011;10712;52.944;9.098;2023-06-24T07:16:55;11.20;;;8.15;;
21107;SDS011;10712;52.944;9.098;2023-06-24T07:19:20;10.88;;;7.90;;
21107;SDS011;10712;52.944;9.098;2023-06-24T07:21:46;7.28;;;6.57;;
21107;SDS011;10712;52.944;9.098;2023-06-24T07:24:12;6.90;;;6.30;;
21107;SDS011;10712;52.944;9.098;2023-06-24T07:26:38;8.40;;;7.45;;
21107;SDS011;10712;52.944;9.098;2023-06-24T07:29:05;8.52;;;7.65;;
21107;SDS011;10712;52.944;9.098;2023-06-24T07:31:32;10.93;;;8.13;;
21107;SDS011;10712;52.944;9.098;2023-06-24T07:33:59;8.82;;;7.57;;
21107;SDS011;10712;52.944;9.098;2023-06-24T07:36:25;10.32;;;7.43;;
21107;SDS011;10712;52.944;9.098;2023-06-24T07:38:50;10.50;;;7.25;;
21107;SDS011;10712;52.944;9.098;2023-06-24T07:41:16;8.13;;;6.75;;
21107;SDS011;10712;52.944;9.098;2023-06-24T07:43:42;5.82;;;5.25;;
21107;SDS011;10712;52.944;9.098;2023-06-24T07:46:08;6.55;;;5.97;;
21107;SDS011;10712;52.944;9.098;2023-06-24T07:48:34;6.55;;;5.72;;
21107;SDS011;10712;52.944;9.098;2023-06-24T07:50:59;7.38;;;5.57;;
21107;SDS011;10712;52.944;9.098;2023-06-24T07:53:25;9.07;;;5.55;;
21107;SDS011;10712;52.944;9.098;2023-06-24T07:55:51;8.90;;;6.85;;
21107;SDS011;10712;52.944;9.098;2023-06-24T07:58:17;6.18;;;5.50;;
21107;SDS011;10712;52.944;9.098;2023-06-24T08:00:44;6.47;;;5.32;;
21107;SDS011;10712;52.944;9.098;2023-06-24T08:03:11;5.90;;;5.32;;
21107;SDS011;10712;52.944;9.098;2023-06-24T08:05:38;8.75;;;5.78;;
21107;SDS011;10712;52.944;9.098;2023-06-24T08:08:04;7.45;;;6.13;;
21107;SDS011;10712;52.944;9.098;2023-06-24T08:10:31;8.00;;;5.70;;
21107;SDS011;10712;52.944;9.098;2023-06-24T08:12:58;5.50;;;5.00;;
21107;SDS011;10712;52.944;9.098;2023-06-24T08:15:23;7.63;;;5.65;;
21107;SDS011;10712;52.944;9.098;2023-06-24T08:17:52;7.72;;;5.43;;
21107;SDS011;10712;52.944;9.098;2023-06-24T08:20:22;5.47;;;4.80;;
21107;SDS011;10712;52.944;9.098;2023-06-24T08:22:49;6.13;;;5.53;;
21107;SDS011;10712;52.944;9.098;2023-06-24T08:25:15;5.95;;;5.35;;
21107;SDS011;10712;52.944;9.098;2023-06-24T08:27:41;4.68;;;4.28;;
21107;SDS011;10712;52.944;9.098;2023-06-24T08:30:08;7.75;;;5.88;;
21107;SDS011;10712;52.944;9.098;2023-06-24T08:32:34;10.52;;;5.97;;
21107;SDS011;10712;52.944;9.098;2023-06-24T08:35:00;7.68;;;5.38;;
21107;SDS011;10712;52.944;9.098;2023-06-24T08:37:26;8.27;;;6.28;;
21107;SDS011;10712;52.944;9.098;2023-06-24T08:39:52;6.47;;;4.75;;
21107;SDS011;10712;52.944;9.098;2023-06-24T08:42:18;7.13;;;6.03;;
21107;SDS011;10712;52.944;9.098;2023-06-24T08:44:44;8.00;;;6.30;;
21107;SDS011;10712;52.944;9.098;2023-06-24T08:47:10;8.05;;;6.10;;
21107;SDS011;10712;52.944;9.098;2023-06-24T08:49:42;6.20;;;4.82;;
21107;SDS011;10712;52.944;9.098;2023-06-24T08:52:16;6.93;;;5.15;;
21107;SDS011;10712;52.944;9.098;2023-06-24T08:54:45;6.40;;;4.65;;
21107;SDS011;10712;52.944;9.098;2023-06-24T08:57:15;5.13;;;4.63;;
21107;SDS011;10712;52.944;9.098;2023-06-24T08:59:42;7.38;;;5.35;;
21107;SDS011;10712;52.944;9.098;2023-06-24T09:02:08;5.53;;;5.03;;
21107;SDS011;10712;52.944;9.098;2023-06-24T09:04:34;5.88;;;5.28;;
21107;SDS011;10712;52.944;9.098;2023-06-24T09:07:00;6.50;;;5.63;;
21107;SDS011;10712;52.944;9.098;2023-06-24T09:09:26;8.00;;;5.15;;
21107;SDS011;10712;52.944;9.098;2023-06-24T09:11:55;5.63;;;5.03;;
21107;SDS011;10712;52.944;9.098;2023-06-24T09:14:23;6.25;;;5.13;;
21107;SDS011;10712;52.944;9.098;2023-06-24T09:17:00;7.03;;;5.22;;
21107;SDS011;10712;52.944;9.098;2023-06-24T09:19:27;5.07;;;4.57;;
21107;SDS011;10712;52.944;9.098;2023-06-24T09:22:03;4.70;;;4.25;;
21107;SDS011;10712;52.944;9.098;2023-06-24T09:24:35;5.55;;;4.80;;
21107;SDS011;10712;52.944;9.098;2023-06-24T09:27:03;4.68;;;4.28;;
21107;SDS011;10712;52.944;9.098;2023-06-24T09:29:34;4.60;;;4.20;;
21107;SDS011;10712;52.944;9.098;2023-06-24T09:32:04;5.53;;;4.75;;
21107;SDS011;10712;52.944;9.098;2023-06-24T09:34:31;6.32;;;4.68;;
21107;SDS011;10712;52.944;9.098;2023-06-24T09:36:58;5.85;;;4.20;;
21107;SDS011;10712;52.944;9.098;2023-06-24T09:39:25;4.60;;;4.20;;
21107;SDS011;10712;52.944;9.098;2023-06-24T09:42:01;5.93;;;3.88;;
21107;SDS011;10712;52.944;9.098;2023-06-24T09:44:29;4.43;;;3.78;;
21107;SDS011;10712;52.944;9.098;2023-06-24T09:46:55;4.43;;;4.03;;
21107;SDS011;10712;52.944;9.098;2023-06-24T09:49:22;4.70;;;4.20;;
21107;SDS011;10712;52.944;9.098;2023-06-24T09:51:57;6.72;;;4.30;;
21107;SDS011;10712;52.944;9.098;2023-06-24T09:54:25;6.38;;;4.93;;
21107;SDS011;10712;52.944;9.098;2023-06-24T09:56:53;4.53;;;4.13;;
21107;SDS011;10712;52.944;9.098;2023-06-24T09:59:24;6.18;;;4.40;;
21107;SDS011;10712;52.944;9.098;2023-06-24T10:01:53;5.65;;;4.13;;
21107;SDS011;10712;52.944;9.098;2023-06-24T10:04:21;4.90;;;4.50;;
21107;SDS011;10712;52.944;9.098;2023-06-24T10:06:49;5.10;;;4.15;;
21107;SDS011;10712;52.944;9.098;2023-06-24T10:09:16;4.15;;;3.75;;
21107;SDS011;10712;52.944;9.098;2023-06-24T10:11:44;4.97;;;4.38;;
21107;SDS011;10712;52.944;9.098;2023-06-24T10:14:11;5.82;;;4.20;;
21107;SDS011;10712;52.944;9.098;2023-06-24T10:16:40;4.60;;;4.10;;
21107;SDS011;10712;52.944;9.098;2023-06-24T10:19:07;6.57;;;4.38;;
21107;SDS011;10712;52.944;9.098;2023-06-24T10:21:45;4.20;;;3.90;;
21107;SDS011;10712;52.944;9.098;2023-06-24T10:24:13;4.53;;;4.13;;
21107;SDS011;10712;52.944;9.098;2023-06-24T10:26:52;6.20;;;4.10;;
21107;SDS011;10712;52.944;9.098;2023-06-24T10:29:18;4.03;;;3.63;;
21107;SDS011;10712;52.944;9.098;2023-06-24T10:31:55;4.38;;;3.97;;
21107;SDS011;10712;52.944;9.098;2023-06-24T10:34:29;3.78;;;3.38;;
21107;SDS011;10712;52.944;9.098;2023-06-24T10:37:04;5.15;;;3.90;;
21107;SDS011;10712;52.944;9.098;2023-06-24T10:45:14;4.38;;;3.63;;
21107;SDS011;10712;52.944;9.098;2023-06-24T10:47:43;5.70;;;3.90;;
21107;SDS011;10712;52.944;9.098;2023-06-24T10:50:22;4.75;;;4.35;;
21107;SDS011;10712;52.944;9.098;2023-06-24T10:52:49;6.90;;;4.05;;
21107;SDS011;10712;52.944;9.098;2023-06-24T10:55:24;3.95;;;3.55;;
21107;SDS011;10712;52.944;9.098;2023-06-24T10:57:50;5.63;;;3.95;;
21107;SDS011;10712;52.944;9.098;2023-06-24T11:00:17;6.30;;;4.30;;
21107;SDS011;10712;52.944;9.098;2023-06-24T11:02:43;5.05;;;4.15;;
21107;SDS011;10712;52.944;9.098;2023-06-24T11:05:09;4.18;;;3.67;;
21107;SDS011;10712;52.944;9.098;2023-06-24T11:07:36;4.43;;;3.60;;
21107;SDS011;10712;52.944;9.098;2023-06-24T11:10:06;6.40;;;4.47;;
21107;SDS011;10712;52.944;9.098;2023-06-24T11:12:37;3.85;;;3.22;;
21107;SDS011;10712;52.944;9.098;2023-06-24T11:15:05;6.32;;;4.10;;
21107;SDS011;10712;52.944;9.098;2023-06-24T11:17:33;4.97;;;3.85;;
21107;SDS011;10712;52.944;9.098;2023-06-24T11:20:00;3.78;;;3.47;;
21107;SDS011;10712;52.944;9.098;2023-06-24T11:22:27;5.80;;;3.95;;
21107;SDS011;10712;52.944;9.098;2023-06-24T11:24:54;6.55;;;4.75;;
21107;SDS011;10712;52.944;9.098;2023-06-24T11:27:25;5.32;;;4.82;;
21107;SDS011;10712;52.944;9.098;2023-06-24T11:29:57;6.03;;;4.88;;
21107;SDS011;10712;52.944;9.098;2023-06-24T11:32:36;4.97;;;4.50;;
21107;SDS011;10712;52.944;9.098;2023-06-24T11:35:09;4.95;;;4.43;;
21107;SDS011;10712;52.944;9.098;2023-06-24T11:37:40;5.68;;;4.20;;
21107;SDS011;10712;52.944;9.098;2023-06-24T11:40:10;8.40;;;4.70;;
21107;SDS011;10712;52.944;9.098;2023-06-24T11:42:39;5.72;;;5.15;;
21107;SDS011;10712;52.944;9.098;2023-06-24T11:45:12;6.30;;;5.70;;
21107;SDS011;10712;52.944;9.098;2023-06-24T11:47:40;5.55;;;5.05;;
21107;SDS011;10712;52.944;9.098;2023-06-24T11:50:06;7.95;;;5.00;;
21107;SDS011;10712;52.944;9.098;2023-06-24T11:57:46;4.38;;;3.97;;
21107;SDS011;10712;52.944;9.098;2023-06-24T12:00:22;4.80;;;4.40;;
21107;SDS011;10712;52.944;9.098;2023-06-24T12:03:01;5.15;;;4.70;;
21107;SDS011;10712;52.944;9.098;2023-06-24T12:05:31;7.85;;;5.95;;
21107;SDS011;10712;52.944;9.098;2023-06-24T12:08:06;6.05;;;5.45;;
21107;SDS011;10712;52.944;9.098;2023-06-24T12:10:35;5.22;;;4.72;;
21107;SDS011;10712;52.944;9.098;2023-06-24T12:13:03;8.52;;;5.15;;
21107;SDS011;10712;52.944;9.098;2023-06-24T12:15:36;8.60;;;5.85;;
21107;SDS011;10712;52.944;9.098;2023-06-24T12:18:02;8.77;;;6.18;;
21107;SDS011;10712;52.944;9.098;2023-06-24T12:20:28;5.03;;;4.53;;
21107;SDS011;10712;52.944;9.098;2023-06-24T12:22:55;5.63;;;5.13;;
21107;SDS011;10712;52.944;9.098;2023-06-24T12:25:21;8.52;;;4.85;;
21107;SDS011;10712;52.944;9.098;2023-06-24T12:27:47;6.50;;;4.32;;
21107;SDS011;10712;52.944;9.098;2023-06-24T12:30:13;7.55;;;5.18;;
21107;SDS011;10712;52.944;9.098;2023-06-24T12:32:39;5.20;;;4.47;;
21107;SDS011;10712;52.944;9.098;2023-06-24T12:35:05;11.00;;;5.03;;
21107;SDS011;10712;52.944;9.098;2023-06-24T12:37:33;5.03;;;4.53;;
21107;SDS011;10712;52.944;9.098;2023-06-24T12:40:00;5.15;;;4.30;;
21107;SDS011;10712;52.944;9.098;2023-06-24T12:42:27;5.82;;;5.10;;
21107;SDS011;10712;52.944;9.098;2023-06-24T12:44:54;6.72;;;5.22;;
21107;SDS011;10712;52.944;9.098;2023-06-24T12:47:20;4.68;;;4.28;;
21107;SDS011;10712;52.944;9.098;2023-06-24T12:49:47;4.82;;;4.43;;
21107;SDS011;10712;52.944;9.098;2023-06-24T12:52:14;5.95;;;5.25;;
21107;SDS011;10712;52.944;9.098;2023-06-24T12:54:40;4.75;;;4.25;;
21107;SDS011;10712;52.944;9.098;2023-06-24T12:57:07;7.80;;;4.35;;
21107;SDS011;10712;52.944;9.098;2023-06-24T12:59:33;4.40;;;4.00;;
21107;SDS011;10712;52.944;9.098;2023-06-24T13:01:58;5.43;;;4.05;;
21107;SDS011;10712;52.944;9.098;2023-06-24T13:04:25;4.93;;;4.15;;
21107;SDS011;10712;52.944;9.098;2023-06-24T13:06:52;5.85;;;5.00;;
21107;SDS011;10712;52.944;9.098;2023-06-24T13:09:18;4.38;;;4.03;;
21107;SDS011;10712;52.944;9.098;2023-06-24T13:11:45;5.30;;;4.72;;
21107;SDS011;10712;52.944;9.098;2023-06-24T13:14:12;8.38;;;5.22;;
21107;SDS011;10712;52.944;9.098;2023-06-24T13:16:38;4.65;;;4.25;;
21107;SDS011;10712;52.944;9.098;2023-06-24T13:19:04;4.90;;;4.40;;
21107;SDS011;10712;52.944;9.098;2023-06-24T13:21:30;4.32;;;3.92;;
21107;SDS011;10712;52.944;9.098;2023-06-24T13:23:56;5.35;;;4.35;;
21107;SDS011;10712;52.944;9.098;2023-06-24T13:26:22;4.63;;;3.95;;
21107;SDS011;10712;52.944;9.098;2023-06-24T13:28:49;5.15;;;3.75;;
21107;SDS011;10712;52.944;9.098;2023-06-24T13:31:15;5.47;;;4.15;;
21107;SDS011;10712;52.944;9.098;2023-06-24T13:33:41;4.43;;;4.03;;
21107;SDS011;10712;52.944;9.098;2023-06-24T13:36:07;4.90;;;3.85;;
21107;SDS011;10712;52.944;9.098;2023-06-24T13:38:53;5.30;;;4.10;;
21107;SDS011;10712;52.944;9.098;2023-06-24T13:41:19;5.13;;;4.43;;
21107;SDS011;10712;52.944;9.098;2023-06-24T13:43:45;5.47;;;4.07;;
21107;SDS011;10712;52.944;9.098;2023-06-24T13:46:11;5.38;;;3.88;;
21107;SDS011;10712;52.944;9.098;2023-06-24T13:48:37;5.35;;;4.18;;
21107;SDS011;10712;52.944;9.098;2023-06-24T13:51:02;4.82;;;4.30;;
21107;SDS011;10712;52.944;9.098;2023-06-24T13:53:28;8.63;;;5.22;;
21107;SDS011;10712;52.944;9.098;2023-06-24T13:55:54;4.15;;;3.83;;
21107;SDS011;10712;52.944;9.098;2023-06-24T13:58:20;4.90;;;4.38;;
21107;SDS011;10712;52.944;9.098;2023-06-24T14:00:46;4.10;;;3.70;;
21107;SDS011;10712;52.944;9.098;2023-06-24T14:03:11;4.15;;;3.85;;
21107;SDS011;10712;52.944;9.098;2023-06-24T14:05:37;5.72;;;3.75;;
21107;SDS011;10712;52.944;9.098;2023-06-24T14:08:03;3.90;;;3.60;;
21107;SDS011;10712;52.944;9.098;2023-06-24T14:10:29;4.50;;;4.05;;
21107;SDS011;10712;52.944;9.098;2023-06-24T14:12:55;5.95;;;4.30;;
21107;SDS011;10712;52.944;9.098;2023-06-24T14:15:20;5.45;;;4.90;;
21107;SDS011;10712;52.944;9.098;2023-06-24T14:17:46;4.47;;;3.97;;
21107;SDS011;10712;52.944;9.098;2023-06-24T14:20:12;3.72;;;3.42;;
21107;SDS011;10712;52.944;9.098;2023-06-24T14:22:38;4.50;;;3.67;;
21107;SDS011;10712;52.944;9.098;2023-06-24T14:25:04;6.57;;;4.47;;
21107;SDS011;10712;52.944;9.098;2023-06-24T14:27:30;4.95;;;4.35;;
21107;SDS011;10712;52.944;9.098;2023-06-24T14:29:56;5.10;;;4.60;;
21107;SDS011;10712;52.944;9.098;2023-06-24T14:32:21;10.50;;;9.45;;
21107;SDS011;10712;52.944;9.098;2023-06-24T14:34:47;7.47;;;6.45;;
21107;SDS011;10712;52.944;9.098;2023-06-24T14:37:13;5.57;;;4.97;;
21107;SDS011;10712;52.944;9.098;2023-06-24T14:39:40;5.45;;;4.95;;
21107;SDS011;10712;52.944;9.098;2023-06-24T14:42:06;4.65;;;4.13;;
21107;SDS011;10712;52.944;9.098;2023-06-24T14:44:31;4.88;;;4.45;;
21107;SDS011;10712;52.944;9.098;2023-06-24T14:46:57;6.30;;;4.97;;
21107;SDS011;10712;52.944;9.098;2023-06-24T14:49:23;5.35;;;4.95;;
21107;SDS011;10712;52.944;9.098;2023-06-24T14:51:49;5.43;;;4.43;;
21107;SDS011;10712;52.944;9.098;2023-06-24T14:54:17;4.30;;;4.00;;
21107;SDS011;10712;52.944;9.098;2023-06-24T14:56:44;5.55;;;4.88;;
21107;SDS011;10712;52.944;9.098;2023-06-24T14:59:10;5.82;;;5.32;;
21107;SDS011;10712;52.944;9.098;2023-06-24T15:01:36;5.75;;;4.90;;
21107;SDS011;10712;52.944;9.098;2023-06-24T15:04:02;4.97;;;4.57;;
21107;SDS011;10712;52.944;9.098;2023-06-24T15:06:28;6.20;;;5.70;;
21107;SDS011;10712;52.944;9.098;2023-06-24T15:08:54;5.45;;;4.95;;